METAR Data
IDs: Format: Raw Decoded Include TAF

Data at: 0502 UTC 21 Sep 2018

METAR for:KSPB (Scappoose Ind Airpar, OR, US)
Text:KSPB 210453Z AUTO 27003KT 10SM CLR 13/11 A3010 RMK AO2 SLP191 T01280106
Temperature: 12.8°C ( 55°F)
Dewpoint: 10.6°C ( 51°F) [RH = 86%]
Pressure (altimeter):30.10 inches Hg (1019.4 mb) [Sea level pressure: 1019.1 mb]
Winds:from the W (270 degrees) at 3 MPH (3 knots; 1.5 m/s)
Visibility:10 or more sm (16+ km)
Ceiling:at least 12,000 feet AGL
Clouds:sky clear below 12,000 feet AGL
QC Flag:automated observation with no human augmentation